createdAt,value
2019-04-30T00:01:59.256Z,28.57
2019-04-30T00:04:37.133Z,29.35
2019-04-30T00:07:01.334Z,26.30
2019-04-30T00:09:31.025Z,28.30
2019-04-30T00:12:01.443Z,30.08
2019-04-30T00:14:36.906Z,28.17
2019-04-30T00:17:02.128Z,27.67
2019-04-30T00:19:31.544Z,27.98
2019-04-30T00:22:00.933Z,26.65
2019-04-30T00:24:30.571Z,30.65
2019-04-30T00:26:59.980Z,27.93
2019-04-30T00:29:31.035Z,28.17
2019-04-30T00:32:04.256Z,30.48
2019-04-30T00:34:37.894Z,27.02
2019-04-30T00:37:07.347Z,30.27
2019-04-30T00:39:35.572Z,30.32
2019-04-30T00:42:05.195Z,25.02
2019-04-30T00:44:35.633Z,29.37
2019-04-30T00:47:08.308Z,27.35
2019-04-30T00:49:37.847Z,29.32
2019-04-30T00:52:07.336Z,30.05
2019-04-30T00:54:36.683Z,30.88
2019-04-30T00:57:07.687Z,27.37
2019-04-30T00:59:39.758Z,26.68
2019-04-30T01:02:29.211Z,29.10
2019-04-30T01:04:58.338Z,29.37
2019-04-30T01:11:06.558Z,27.87
2019-04-30T01:13:50.236Z,28.35
2019-04-30T01:19:40.014Z,27.52
2019-04-30T01:22:09.443Z,26.30
2019-04-30T01:24:38.947Z,30.57
2019-04-30T01:27:10.470Z,30.68
2019-04-30T01:29:44.162Z,30.25
2019-04-30T01:32:17.367Z,26.75
2019-04-30T01:34:44.124Z,25.82
2019-04-30T01:37:14.351Z,27.10
2019-04-30T01:39:43.741Z,27.22
2019-04-30T01:42:13.099Z,28.50
2019-04-30T01:44:43.543Z,23.47
2019-04-30T01:47:13.592Z,26.35
2019-04-30T01:49:44.856Z,26.48
2019-04-30T01:52:14.095Z,25.27
2019-04-30T01:54:43.621Z,29.63
2019-04-30T01:57:30.843Z,24.43
2019-04-30T02:00:01.874Z,26.73
2019-04-30T02:02:33.996Z,26.62
2019-04-30T02:05:04.988Z,28.42
2019-04-30T02:07:34.555Z,25.48
2019-04-30T02:10:04.644Z,24.65
2019-04-30T02:12:34.024Z,26.87
2019-04-30T02:15:05.507Z,29.77
2019-04-30T02:17:35.027Z,29.42
2019-04-30T02:20:08.437Z,31.40
2019-04-30T02:22:38.916Z,30.00
2019-04-30T02:25:09.639Z,30.50
2019-04-30T02:27:39.365Z,29.95
2019-04-30T02:30:11.214Z,29.30
2019-04-30T02:32:41.989Z,30.75
2019-04-30T02:35:28.804Z,29.95
2019-04-30T02:38:16.260Z,32.28
2019-04-30T02:40:46.322Z,26.57
2019-04-30T02:43:16.702Z,29.80
2019-04-30T02:45:49.779Z,29.65
2019-04-30T02:48:22.536Z,28.75
2019-04-30T02:50:54.318Z,32.10
2019-04-30T02:53:50.541Z,28.27
2019-04-30T02:56:26.612Z,28.50
2019-04-30T02:58:54.551Z,27.70
2019-04-30T03:01:24.078Z,27.75
2019-04-30T03:03:53.587Z,25.23
2019-04-30T03:06:23.679Z,29.82
2019-04-30T03:08:53.457Z,25.82
2019-04-30T03:11:22.877Z,27.93
2019-04-30T03:13:52.318Z,27.55
2019-04-30T03:16:23.392Z,29.23
2019-04-30T03:18:54.395Z,27.02
2019-04-30T03:21:41.618Z,22.50
2019-04-30T03:24:11.411Z,22.80
2019-04-30T03:26:42.182Z,22.70
2019-04-30T03:29:11.780Z,23.65
2019-04-30T03:31:44.242Z,22.05
2019-04-30T03:34:19.559Z,21.95
2019-04-30T03:36:43.613Z,19.55
2019-04-30T03:39:13.105Z,23.20
2019-04-30T03:41:42.569Z,23.02
2019-04-30T03:44:21.760Z,19.87
2019-04-30T03:46:43.049Z,20.95
2019-04-30T03:49:13.316Z,22.00
2019-04-30T03:51:43.221Z,21.12
2019-04-30T03:54:12.659Z,17.57
2019-04-30T03:56:42.896Z,16.67
2019-04-30T03:59:12.327Z,15.80
2019-04-30T04:01:45.949Z,19.12
2019-04-30T04:04:20.237Z,16.77
2019-04-30T04:07:10.323Z,17.20
2019-04-30T04:09:59.814Z,15.90
2019-04-30T04:12:30.511Z,14.90
2019-04-30T04:15:03.763Z,16.93
2019-04-30T04:17:31.829Z,16.93
2019-04-30T04:20:01.287Z,18.17
2019-04-30T04:22:31.834Z,14.30
2019-04-30T04:28:36.643Z,19.90
2019-04-30T04:31:06.265Z,18.87
2019-04-30T04:33:35.693Z,19.02
2019-04-30T04:39:29.788Z,19.05
2019-04-30T04:41:59.955Z,17.25
2019-04-30T04:44:29.804Z,17.98
2019-04-30T04:47:00.187Z,16.80
2019-04-30T04:49:30.585Z,18.70
2019-04-30T04:52:00.389Z,14.87
2019-04-30T04:57:53.475Z,14.00
2019-04-30T05:00:22.828Z,16.15
2019-04-30T05:03:02.960Z,13.45
2019-04-30T05:05:32.598Z,15.85
2019-04-30T05:08:01.986Z,14.90
2019-04-30T05:10:31.335Z,13.75
2019-04-30T05:13:00.691Z,14.28
2019-04-30T05:15:30.060Z,13.43
2019-04-30T05:17:59.499Z,12.25
2019-04-30T05:20:29.267Z,14.78
2019-04-30T05:24:18.912Z,11.03
2019-04-30T05:26:48.834Z,12.40
2019-04-30T05:29:19.091Z,12.85
2019-04-30T05:31:48.719Z,11.93
2019-04-30T05:34:18.841Z,12.88
2019-04-30T05:36:49.003Z,13.48
2019-04-30T05:39:20.291Z,14.90
2019-04-30T05:41:49.671Z,16.12
2019-04-30T05:44:19.050Z,14.70
2019-04-30T05:46:49.392Z,13.28
2019-04-30T05:49:20.465Z,19.25
2019-04-30T05:51:55.481Z,14.87
2019-04-30T05:54:21.147Z,16.05
2019-04-30T05:56:50.516Z,14.35
2019-04-30T05:59:20.653Z,15.20
2019-04-30T06:01:50.795Z,17.10
2019-04-30T06:04:20.478Z,16.55
2019-04-30T06:06:49.981Z,19.23
2019-04-30T06:09:33.687Z,17.65
2019-04-30T06:12:04.555Z,16.65
2019-04-30T06:17:13.140Z,17.20
2019-04-30T06:22:11.275Z,19.62
2019-04-30T06:24:51.057Z,18.37
2019-04-30T06:30:44.051Z,17.65
2019-04-30T06:33:13.496Z,20.00
2019-04-30T06:35:42.965Z,19.15
2019-04-30T06:38:12.487Z,23.02
2019-04-30T06:40:43.368Z,19.80
2019-04-30T06:47:01.549Z,22.10
2019-04-30T06:50:59.426Z,23.75
2019-04-30T06:53:29.253Z,20.27
2019-04-30T06:55:59.087Z,23.05
2019-04-30T06:58:29.197Z,20.25
2019-04-30T07:00:59.572Z,21.13
2019-04-30T07:03:29.260Z,20.97
2019-04-30T07:05:58.773Z,21.82
2019-04-30T07:08:37.217Z,20.37
2019-04-30T07:11:20.767Z,18.77
2019-04-30T07:13:52.385Z,20.10
2019-04-30T07:16:23.136Z,21.48
2019-04-30T07:18:52.499Z,20.45
2019-04-30T07:21:21.894Z,23.35
2019-04-30T07:23:51.319Z,22.15
2019-04-30T07:26:24.467Z,20.90
2019-04-30T07:28:55.113Z,19.82
2019-04-30T07:31:23.050Z,22.27
2019-04-30T07:33:54.001Z,21.45
2019-04-30T07:36:23.622Z,21.97
2019-04-30T07:38:56.411Z,20.27
2019-04-30T07:41:24.158Z,21.50
2019-04-30T07:43:53.575Z,21.37
2019-04-30T07:46:23.035Z,20.50
2019-04-30T07:48:52.407Z,21.12
2019-04-30T07:51:22.442Z,19.32
2019-04-30T07:53:53.599Z,18.80
2019-04-30T07:56:28.006Z,22.65
2019-04-30T07:58:54.139Z,18.42
2019-04-30T08:01:23.647Z,18.65
2019-04-30T08:03:54.851Z,21.60
2019-04-30T08:06:24.596Z,20.62
2019-04-30T08:12:25.983Z,21.23
2019-04-30T08:14:49.571Z,20.00
2019-04-30T08:17:19.144Z,21.00
2019-04-30T08:19:49.660Z,26.75
2019-04-30T08:22:19.632Z,22.52
2019-04-30T08:24:49.383Z,23.22
2019-04-30T08:27:19.924Z,25.80
2019-04-30T08:29:50.032Z,27.42
2019-04-30T08:32:19.606Z,22.37
2019-04-30T08:34:50.148Z,27.13
2019-04-30T08:37:20.339Z,20.95
2019-04-30T08:39:49.936Z,27.37
2019-04-30T08:42:30.889Z,40.05
2019-04-30T08:44:50.424Z,27.05
2019-04-30T08:47:21.284Z,27.93
2019-04-30T08:49:51.047Z,27.02
2019-04-30T08:52:20.725Z,24.63
2019-04-30T08:54:50.548Z,25.20
2019-04-30T08:57:20.051Z,27.32
2019-04-30T08:59:50.693Z,27.22
2019-04-30T09:02:20.131Z,31.35
2019-04-30T09:04:51.140Z,34.40
2019-04-30T09:07:20.543Z,30.62
2019-04-30T09:13:01.713Z,28.52
2019-04-30T09:18:55.536Z,31.10
2019-04-30T09:21:27.378Z,27.93
2019-04-30T09:23:56.034Z,29.50
2019-04-30T09:26:25.460Z,31.70
2019-04-30T09:28:54.905Z,33.02
2019-04-30T09:31:24.366Z,32.08
2019-04-30T09:37:41.767Z,28.95
2019-04-30T09:40:18.294Z,27.25
2019-04-30T09:46:17.919Z,31.35
2019-04-30T09:48:38.623Z,31.30
2019-04-30T09:54:21.173Z,33.08
2019-04-30T09:56:52.667Z,37.48
